Time;durP1;ratioP1;P1;durP2;ratioP2;P2;SDS_P1;SDS_P2;PMS_P1;PMS_P2;Temp;Humidity;BMP_temperature;BMP_pressure;BME280_temperature;BME280_humidity;BME280_pressure;Samples;Min_cycle;Max_cycle;Signal;HPM_P1;HPM_P2
2022/08/23 00:00:37;;;;;;;3.37;2.37;;;;;;;21.28;56.37;100849.47;5057129;28;20668;-80
2022/08/23 00:03:03;;;;;;;8.07;2.30;;;;;;;21.21;57.05;100841.88;5057577;28;20575;-81
2022/08/23 00:05:30;;;;;;;3.67;2.10;;;;;;;21.20;57.37;100824.22;5056856;28;20233;-80
2022/08/23 00:07:58;;;;;;;5.20;2.30;;;;;;;21.23;57.97;100807.28;5056874;28;20273;-81
2022/08/23 00:10:25;;;;;;;3.20;2.17;;;;;;;21.25;57.63;100802.72;5056071;28;20206;-80
2022/08/23 00:12:52;;;;;;;3.33;2.03;;;;;;;21.25;57.14;100823.97;5056605;28;20232;-81
2022/08/23 00:15:20;;;;;;;4.50;2.43;;;;;;;21.28;57.18;100828.25;5056963;28;20205;-81
2022/08/23 00:17:47;;;;;;;2.30;2.17;;;;;;;21.28;57.81;100822.94;5056766;28;20209;-81
2022/08/23 00:20:18;;;;;;;2.90;2.27;;;;;;;21.29;57.65;100816.66;5057319;28;20202;-79
2022/08/23 00:22:44;;;;;;;2.10;1.90;;;;;;;21.27;57.15;100824.75;5057244;28;20226;-80
2022/08/23 00:25:14;;;;;;;2.40;2.20;;;;;;;21.29;56.68;100841.44;5056729;28;20236;-78
2022/08/23 00:27:40;;;;;;;5.27;2.10;;;;;;;21.28;56.50;100863.59;5056905;28;20236;-79
2022/08/23 00:30:11;;;;;;;2.93;2.13;;;;;;;21.26;57.01;100865.50;5057319;28;20210;-80
2022/08/23 00:32:39;;;;;;;2.63;2.20;;;;;;;21.22;56.90;100851.53;5057213;28;20232;-80
2022/08/23 00:35:08;;;;;;;2.77;2.33;;;;;;;21.15;57.22;100844.88;5056240;28;20209;-81
2022/08/23 00:37:34;;;;;;;4.03;2.53;;;;;;;21.11;58.16;100829.19;5056526;28;20231;-81
2022/08/23 00:40:01;;;;;;;2.50;2.20;;;;;;;21.11;58.37;100802.66;5056560;28;20202;-80
2022/08/23 00:48:15;;;;;;;2.37;2.27;;;;;;;20.94;58.63;100788.53;5057119;28;20280;-81
2022/08/23 00:50:48;;;;;;;2.83;2.10;;;;;;;20.94;59.04;100783.22;5057207;28;20263;-81
2022/08/23 00:53:19;;;;;;;2.30;2.20;;;;;;;20.89;58.72;100782.66;5056974;28;20288;-80
2022/08/23 00:55:50;;;;;;;3.70;2.20;;;;;;;20.90;58.51;100787.00;5056250;28;20197;-79
2022/08/23 00:58:20;;;;;;;5.07;2.63;;;;;;;20.87;58.56;100792.50;5056961;28;20292;-81
2022/08/23 01:00:48;;;;;;;4.77;2.20;;;;;;;20.88;58.54;100799.50;5057041;28;20208;-80
2022/08/23 01:03:18;;;;;;;2.77;2.00;;;;;;;20.78;59.46;100787.72;5056709;28;20279;-80
2022/08/23 01:05:51;;;;;;;2.67;2.20;;;;;;;20.77;59.19;100778.91;5056433;28;20236;-80
2022/08/23 01:08:22;;;;;;;2.47;2.27;;;;;;;20.73;58.99;100785.31;5056671;28;20293;-80
2022/08/23 01:10:55;;;;;;;2.80;2.20;;;;;;;20.73;58.91;100795.06;5057331;28;20205;-81
2022/08/23 01:13:28;;;;;;;2.37;2.10;;;;;;;20.72;58.71;100804.81;5056461;28;20230;-79
2022/08/23 01:15:58;;;;;;;2.40;2.20;;;;;;;20.65;58.70;100805.25;5056692;28;20186;-80
2022/08/23 01:18:26;;;;;;;2.10;2.00;;;;;;;20.62;59.01;100803.63;5057047;28;20329;-80
2022/08/23 01:20:59;;;;;;;2.47;2.27;;;;;;;20.57;59.13;100810.94;5056264;28;20733;-80
2022/08/23 01:23:35;;;;;;;2.67;2.47;;;;;;;20.43;59.52;100788.69;5059484;28;20236;-81
2022/08/23 01:26:03;;;;;;;2.30;2.10;;;;;;;20.43;59.87;100771.91;5059985;28;20213;-80
2022/08/23 01:28:30;;;;;;;3.73;2.30;;;;;;;20.36;59.91;100774.03;5059972;28;20255;-80
2022/08/23 01:30:56;;;;;;;3.13;2.17;;;;;;;20.32;60.15;100771.66;5060975;28;20206;-81
2022/08/23 01:33:23;;;;;;;3.47;2.30;;;;;;;20.31;59.93;100775.22;5059302;28;20319;-80
2022/08/23 01:35:53;;;;;;;2.60;2.40;;;;;;;20.31;59.93;100775.22;5058983;28;20202;-80
2022/08/23 01:38:21;;;;;;;3.77;2.90;;;;;;;20.22;59.84;100788.03;5058700;28;20216;-80
2022/08/23 01:40:49;;;;;;;4.90;2.67;;;;;;;20.19;60.46;100776.75;5059711;28;20233;-80
2022/08/23 01:43:18;;;;;;;2.53;2.30;;;;;;;20.17;60.27;100778.63;5059229;28;20316;-79
2022/08/23 01:45:46;;;;;;;4.67;2.57;;;;;;;20.14;60.40;100774.34;5059007;28;20634;-80
2022/08/23 01:48:13;;;;;;;3.20;2.40;;;;;;;20.05;61.07;100764.22;5058743;28;20559;-80
2022/08/23 01:50:40;;;;;;;3.80;2.57;;;;;;;20.01;61.05;100757.38;5059157;28;20270;-79
2022/08/23 01:53:07;;;;;;;3.00;2.53;;;;;;;19.98;61.00;100746.94;5058656;28;20693;-79
2022/08/23 01:55:34;;;;;;;2.83;2.53;;;;;;;19.99;60.86;100754.81;5059215;28;20259;-78
2022/08/23 01:58:05;;;;;;;3.03;2.33;;;;;;;19.96;61.16;100743.50;5058824;28;20235;-80
2022/08/23 02:00:40;;;;;;;4.37;2.40;;;;;;;19.94;61.16;100756.88;5059567;28;20205;-80
2022/08/23 02:03:08;;;;;;;4.57;2.70;;;;;;;19.90;61.53;100741.19;5061381;28;20279;-81
2022/08/23 02:05:36;;;;;;;12.63;2.77;;;;;;;19.86;61.71;100744.94;5058678;28;20251;-80
2022/08/23 02:10:44;;;;;;;3.57;2.73;;;;;;;19.80;61.66;100751.41;5058627;28;20240;-81
2022/08/23 02:13:11;;;;;;;2.60;2.40;;;;;;;19.72;61.83;100740.38;5059379;28;20225;-80
2022/08/23 02:15:38;;;;;;;2.90;2.53;;;;;;;19.63;61.53;100745.19;5059006;28;20213;-79
2022/08/23 02:18:05;;;;;;;2.90;2.70;;;;;;;19.60;61.73;100753.31;5058953;28;20208;-80
2022/08/23 02:20:31;;;;;;;3.00;2.60;;;;;;;19.62;61.66;100748.78;5059078;28;20213;-81
2022/08/23 02:22:58;;;;;;;2.90;2.57;;;;;;;19.67;61.39;100759.13;5058468;28;20229;-78
2022/08/23 02:25:24;;;;;;;2.77;2.47;;;;;;;19.67;61.10;100769.72;5059226;28;20280;-79
2022/08/23 02:27:51;;;;;;;3.50;2.70;;;;;;;19.63;61.66;100770.81;5058359;28;20212;-80
2022/08/23 02:30:18;;;;;;;3.57;3.13;;;;;;;19.58;62.46;100755.19;5058894;28;20213;-81
2022/08/23 02:32:45;;;;;;;4.43;2.67;;;;;;;19.56;62.66;100742.94;5058379;28;20291;-81
2022/08/23 02:35:11;;;;;;;3.67;2.87;;;;;;;19.53;62.41;100725.41;5058481;28;20745;-80
2022/08/23 02:37:38;;;;;;;2.83;2.63;;;;;;;19.52;62.57;100730.78;5058960;28;20671;-80
2022/08/23 02:40:06;;;;;;;2.90;2.63;;;;;;;19.44;63.03;100731.16;5058981;28;20236;-81
2022/08/23 02:42:32;;;;;;;4.23;2.87;;;;;;;19.35;63.19;100727.22;5058802;28;20220;-81
2022/08/23 02:44:59;;;;;;;3.97;2.83;;;;;;;19.35;63.62;100710.47;5058506;28;20263;-80
2022/08/23 02:47:27;;;;;;;3.13;2.27;;;;;;;19.35;64.01;100700.75;5058836;28;20257;-80
2022/08/23 02:49:53;;;;;;;2.87;2.50;;;;;;;19.34;63.72;100701.66;5058968;28;20259;-79
2022/08/23 02:52:19;;;;;;;3.07;2.87;;;;;;;19.30;63.84;100707.19;5057837;28;20209;-81
2022/08/23 02:54:46;;;;;;;2.43;2.23;;;;;;;19.32;63.28;100716.78;5058287;28;20237;-80
2022/08/23 02:57:12;;;;;;;3.60;3.10;;;;;;;19.29;63.79;100727.53;5059558;28;20251;-80
2022/08/23 02:59:39;;;;;;;2.50;2.40;;;;;;;19.23;64.22;100704.03;5058416;28;20292;-80
2022/08/23 03:02:06;;;;;;;3.00;2.80;;;;;;;19.21;64.23;100705.91;5058240;28;20201;-79
2022/08/23 03:04:33;;;;;;;4.97;2.80;;;;;;;19.20;63.63;100720.03;5058609;28;20233;-79
2022/08/23 03:07:00;;;;;;;3.90;2.93;;;;;;;19.15;63.75;100719.44;5057988;28;20232;-80
2022/08/23 03:09:26;;;;;;;2.77;2.53;;;;;;;19.05;64.02;100719.03;5057756;28;20279;-81
2022/08/23 03:11:53;;;;;;;3.07;2.77;;;;;;;19.08;64.75;100696.84;5057746;28;20316;-79
2022/08/23 03:14:19;;;;;;;4.70;2.87;;;;;;;18.98;65.06;100681.44;5058052;28;20339;-80
2022/08/23 03:16:46;;;;;;;3.20;3.00;;;;;;;18.95;65.44;100660.44;5057689;28;20614;-81
2022/08/23 03:19:13;;;;;;;2.80;2.50;;;;;;;19.00;64.95;100662.84;5058172;28;20260;-81
2022/08/23 03:21:41;;;;;;;3.00;2.70;;;;;;;19.01;65.26;100660.13;5058450;28;20233;-79
2022/08/23 03:24:08;;;;;;;3.67;3.20;;;;;;;18.98;65.47;100677.94;5057953;28;20229;-80
2022/08/23 03:26:35;;;;;;;3.30;3.00;;;;;;;18.98;64.90;100688.53;5058620;28;20221;-79
2022/08/23 03:29:01;;;;;;;3.07;2.87;;;;;;;18.95;64.93;100681.59;5058304;28;20209;-81
2022/08/23 03:31:28;;;;;;;3.30;2.90;;;;;;;18.93;65.60;100678.19;5058222;28;20209;-80
2022/08/23 03:33:54;;;;;;;3.67;3.23;;;;;;;18.92;65.78;100662.38;5057395;28;20225;-79
2022/08/23 03:36:21;;;;;;;3.13;2.43;;;;;;;18.87;66.41;100652.03;5057720;28;20267;-81
2022/08/23 03:38:49;;;;;;;5.07;3.03;;;;;;;18.82;65.80;100662.81;5057990;28;20205;-80
2022/08/23 03:41:16;;;;;;;3.30;3.00;;;;;;;18.85;66.60;100649.47;5058350;28;20209;-81
2022/08/23 03:43:42;;;;;;;3.73;2.87;;;;;;;18.94;66.16;100657.88;5057317;28;20239;-80
2022/08/23 03:46:21;;;;;;;3.70;3.07;;;;;;;19.00;65.09;100679.56;5057494;28;20283;-80
2022/08/23 03:48:49;;;;;;;3.93;2.90;;;;;;;19.02;65.20;100695.38;5057861;28;20217;-80
2022/08/23 03:51:16;;;;;;;2.70;2.50;;;;;;;19.01;65.34;100701.59;5058744;28;20276;-80
2022/08/23 03:53:42;;;;;;;4.27;2.80;;;;;;;19.00;65.55;100691.94;5058816;28;20246;-81
2022/08/23 03:56:10;;;;;;;3.00;2.80;;;;;;;18.99;66.06;100684.94;5058491;28;20201;-80
2022/08/23 03:58:36;;;;;;;3.30;3.00;;;;;;;18.94;66.29;100679.03;5058740;28;20202;-80
2022/08/23 04:01:04;;;;;;;3.00;2.80;;;;;;;18.98;66.40;100675.28;5057432;28;20209;-80
2022/08/23 04:03:30;;;;;;;3.10;2.80;;;;;;;18.97;66.14;100674.44;5057711;28;20308;-79
2022/08/23 04:05:57;;;;;;;3.40;3.10;;;;;;;18.93;66.25;100683.47;5053806;28;20320;-79
2022/08/23 04:08:24;;;;;;;4.67;3.20;;;;;;;18.94;65.94;100692.25;5053247;28;20232;-78
2022/08/23 04:10:51;;;;;;;3.47;3.17;;;;;;;18.90;66.11;100693.34;5054208;28;20227;-76
2022/08/23 04:13:19;;;;;;;4.70;3.17;;;;;;;18.90;66.73;100688.91;5053884;28;20233;-78
2022/08/23 04:15:45;;;;;;;4.43;3.60;;;;;;;18.86;65.84;100689.97;5053659;28;20205;-77
2022/08/23 04:18:12;;;;;;;3.73;3.20;;;;;;;18.89;64.89;100728.66;5053096;28;20235;-77
2022/08/23 04:20:39;;;;;;;3.43;3.13;;;;;;;18.81;65.30;100731.66;5053403;28;20623;-79
2022/08/23 04:23:05;;;;;;;4.47;3.20;;;;;;;18.75;65.51;100730.16;5053283;28;20279;-79
2022/08/23 04:25:32;;;;;;;3.30;3.00;;;;;;;18.68;65.83;100726.09;5053213;28;20259;-77
2022/08/23 04:27:58;;;;;;;4.33;3.87;;;;;;;18.70;65.33;100733.94;5053444;28;20229;-79
2022/08/23 04:30:26;;;;;;;3.00;2.80;;;;;;;18.69;65.39;100740.16;5053803;28;20231;-78
2022/08/23 04:32:52;;;;;;;5.27;3.50;;;;;;;18.69;65.38;100742.81;5053256;28;20233;-80
2022/08/23 04:35:19;;;;;;;3.63;3.33;;;;;;;18.77;65.13;100751.22;5054812;28;20240;-78
2022/08/23 04:37:45;;;;;;;3.53;3.30;;;;;;;18.80;65.78;100738.75;5055604;28;20201;-79
2022/08/23 04:42:52;;;;;;;4.10;3.27;;;;;;;18.83;65.18;100741.25;5021528;28;20263;-79
2022/08/23 04:45:19;;;;;;;3.40;3.10;;;;;;;18.88;64.73;100764.81;5055640;28;20201;-80
2022/08/23 04:47:47;;;;;;;4.53;3.50;;;;;;;18.93;65.79;100754.00;5055732;28;20225;-79
2022/08/23 04:50:13;;;;;;;4.53;3.17;;;;;;;18.98;66.24;100736.13;5055744;28;20213;-78
2022/08/23 04:52:40;;;;;;;3.30;2.90;;;;;;;18.99;66.14;100728.13;5054650;28;20197;-79
2022/08/23 04:55:07;;;;;;;3.83;3.37;;;;;;;19.03;65.60;100748.22;5055654;28;20210;-78
2022/08/23 04:57:34;;;;;;;6.07;3.27;;;;;;;19.09;64.55;100786.75;5060502;28;20263;-78
2022/08/23 05:00:00;;;;;;;3.40;3.20;;;;;;;19.15;64.27;100812.06;5059010;28;20660;-77
2022/08/23 05:02:27;;;;;;;5.77;3.47;;;;;;;19.16;64.87;100816.41;5059869;28;20263;-79
2022/08/23 05:04:55;;;;;;;4.03;3.63;;;;;;;19.20;63.70;100842.63;5059576;28;20217;-78
2022/08/23 05:07:21;;;;;;;4.33;3.13;;;;;;;19.22;63.08;100869.88;5059766;28;20232;-77
2022/08/23 05:09:48;;;;;;;3.50;3.13;;;;;;;19.28;62.98;100879.31;5059505;28;20255;-79
2022/08/23 05:12:14;;;;;;;6.43;3.13;;;;;;;19.31;63.01;100884.50;5060343;28;20209;-79
2022/08/23 05:14:41;;;;;;;4.60;3.37;;;;;;;19.34;62.59;100899.34;5059269;28;20225;-80
2022/08/23 05:17:07;;;;;;;3.80;3.40;;;;;;;19.40;62.50;100902.56;5058582;28;20668;-80
2022/08/23 05:19:34;;;;;;;6.50;3.53;;;;;;;19.42;62.49;100906.00;5056815;28;20679;-80
2022/08/23 05:22:02;;;;;;;5.23;3.27;;;;;;;19.42;62.87;100892.78;5056982;28;20209;-78
2022/08/23 05:24:28;;;;;;;6.37;3.50;;;;;;;19.45;62.71;100900.56;5056104;28;20282;-80
2022/08/23 05:26:55;;;;;;;4.43;3.43;;;;;;;19.50;62.06;100920.66;5052592;28;20229;-79
2022/08/23 05:29:21;;;;;;;3.67;3.30;;;;;;;19.55;62.31;100922.16;5055153;28;20227;-79
2022/08/23 05:31:48;;;;;;;7.77;3.73;;;;;;;19.59;62.47;100912.28;5059693;28;20619;-79
2022/08/23 05:34:14;;;;;;;4.10;3.60;;;;;;;19.64;62.29;100905.81;5060944;28;20237;-81
2022/08/23 05:36:41;;;;;;;4.90;3.30;;;;;;;19.68;62.76;100900.34;5057960;28;20201;-78
2022/08/23 05:39:08;;;;;;;4.07;3.27;;;;;;;19.73;63.62;100874.53;5057697;28;20228;-79
2022/08/23 05:41:35;;;;;;;5.03;3.67;;;;;;;19.82;65.66;100824.59;5057777;28;20623;-79
2022/08/23 05:44:01;;;;;;;4.30;2.87;;;;;;;19.88;65.61;100809.31;5057803;28;20225;-79
2022/08/23 05:46:28;;;;;;;3.20;3.00;;;;;;;19.91;66.56;100757.00;5052402;28;20278;-78
2022/08/23 05:48:54;;;;;;;4.00;2.97;;;;;;;19.98;66.49;100760.19;5054644;28;20277;-79
2022/08/23 05:51:23;;;;;;;3.10;2.80;;;;;;;20.05;67.28;100740.38;5057193;28;20732;-79
2022/08/23 05:53:51;;;;;;;3.40;2.93;;;;;;;20.07;65.02;100770.31;5057545;28;20228;-80
2022/08/23 05:56:21;;;;;;;2.70;2.50;;;;;;;20.12;63.56;100865.47;5057037;28;20246;-79
2022/08/23 05:58:49;;;;;;;3.47;2.87;;;;;;;20.15;62.57;100910.38;5057554;28;20330;-78
2022/08/23 06:01:17;;;;;;;4.47;3.10;;;;;;;20.17;60.98;100967.66;5057748;28;20205;-79
2022/08/23 06:03:44;;;;;;;4.50;3.00;;;;;;;20.21;60.65;100990.44;5057526;28;20234;-79
2022/08/23 06:06:11;;;;;;;3.10;2.80;;;;;;;20.29;60.35;101023.69;5057216;28;20248;-77
2022/08/23 06:08:39;;;;;;;3.47;3.17;;;;;;;20.32;60.58;101003.16;5056822;28;20205;-79
2022/08/23 06:11:08;;;;;;;5.17;3.23;;;;;;;20.42;60.09;101030.09;5057564;28;20202;-79
2022/08/23 06:13:39;;;;;;;2.43;2.23;;;;;;;20.48;60.37;101036.88;5057408;28;20583;-80
2022/08/23 06:16:07;;;;;;;2.47;2.27;;;;;;;20.54;60.15;101037.41;5057754;28;20277;-79
2022/08/23 06:18:33;;;;;;;3.07;2.60;;;;;;;20.62;60.83;100999.91;5057436;28;20213;-79
2022/08/23 06:21:01;;;;;;;3.00;2.70;;;;;;;20.72;60.21;101002.94;5057827;28;20614;-79
2022/08/23 06:23:28;;;;;;;4.73;2.70;;;;;;;20.81;60.18;101016.59;5056900;28;20641;-80
2022/08/23 06:25:55;;;;;;;3.07;2.50;;;;;;;20.92;58.26;101060.28;5057375;28;20213;-79
2022/08/23 06:28:22;;;;;;;2.80;1.90;;;;;;;21.00;57.94;101084.63;5057686;28;20318;-80
2022/08/23 06:30:52;;;;;;;4.90;2.30;;;;;;;21.10;57.91;101082.34;5057435;28;20240;-80
2022/08/23 06:33:19;;;;;;;4.77;2.50;;;;;;;21.20;57.69;101104.81;5057426;28;20226;-80
2022/08/23 06:35:46;;;;;;;2.87;2.00;;;;;;;21.32;56.84;101108.63;5057361;28;20703;-79
2022/08/23 06:38:12;;;;;;;1.90;1.80;;;;;;;21.40;55.86;101152.41;5062301;28;20208;-78
2022/08/23 06:40:39;;;;;;;3.30;2.33;;;;;;;21.48;56.98;101145.88;5063556;28;20293;-77
2022/08/23 06:43:05;;;;;;;2.67;2.20;;;;;;;21.51;56.40;101153.69;5060544;28;20229;-80
2022/08/23 06:45:32;;;;;;;4.47;3.10;;;;;;;21.62;57.20;101177.88;5056508;28;20225;-79
2022/08/23 06:48:00;;;;;;;2.97;2.17;;;;;;;21.64;55.27;101165.34;5056499;28;20232;-78
2022/08/23 06:50:27;;;;;;;3.47;2.10;;;;;;;21.64;56.51;101165.34;5056332;28;20214;-80
2022/08/23 06:52:53;;;;;;;3.90;2.40;;;;;;;21.69;55.79;101175.75;5055693;28;20583;-79
2022/08/23 06:55:20;;;;;;;7.53;3.07;;;;;;;21.73;56.09;101148.06;5056482;28;20209;-79
2022/08/23 06:57:46;;;;;;;2.93;2.37;;;;;;;21.78;55.30;101172.59;5055546;28;20209;-80
2022/08/23 07:00:14;;;;;;;3.13;2.10;;;;;;;21.78;55.67;101164.63;5055726;28;20205;-79
2022/08/23 07:02:40;;;;;;;4.67;2.60;;;;;;;21.81;55.46;101210.50;5055977;28;20267;-77
2022/08/23 07:05:09;;;;;;;3.00;2.37;;;;;;;21.85;56.39;101179.28;5056071;28;20205;-79
2022/08/23 07:07:35;;;;;;;3.13;2.67;;;;;;;21.90;54.14;101206.50;5055063;28;20867;-79
2022/08/23 07:10:02;;;;;;;3.27;2.27;;;;;;;21.87;56.65;101181.88;5056965;28;20260;-79
2022/08/23 07:12:29;;;;;;;2.50;2.03;;;;;;;21.87;56.97;101136.69;5056535;28;20263;-78
2022/08/23 07:14:55;;;;;;;2.20;2.00;;;;;;;21.89;57.91;101071.84;5056776;28;20212;-80
2022/08/23 07:17:22;;;;;;;2.90;2.17;;;;;;;21.91;56.38;101116.97;5058463;28;20240;-79
2022/08/23 07:19:48;;;;;;;3.33;1.73;;;;;;;21.92;54.45;101185.13;5054047;28;20201;-78
2022/08/23 07:22:17;;;;;;;2.30;2.03;;;;;;;21.91;57.81;101147.06;5048394;28;20248;-78
2022/08/23 07:24:44;;;;;;;2.40;2.20;;;;;;;21.92;56.09;101110.69;5046349;28;20417;-80
2022/08/23 07:27:11;;;;;;;2.27;1.70;;;;;;;21.97;55.04;101152.03;5043852;28;20217;-80
2022/08/23 07:29:38;;;;;;;3.03;1.97;;;;;;;22.02;54.11;101195.19;5046778;28;20237;-77
2022/08/23 07:32:06;;;;;;;3.27;2.23;;;;;;;22.05;53.71;101220.75;5055995;28;20292;-79
2022/08/23 07:34:32;;;;;;;2.87;1.87;;;;;;;22.04;54.44;101229.69;5047115;28;20222;-79
2022/08/23 07:37:00;;;;;;;1.93;1.83;;;;;;;22.06;55.94;101165.75;5050086;28;20224;-80
2022/08/23 07:39:30;;;;;;;3.30;2.00;;;;;;;22.08;54.86;101187.78;5049613;28;20225;-77
2022/08/23 07:41:58;;;;;;;2.77;2.20;;;;;;;22.10;54.05;101208.06;5050260;28;20222;-79
2022/08/23 07:44:25;;;;;;;2.67;2.33;;;;;;;22.13;54.40;101199.06;5043522;28;20221;-78
2022/08/23 07:46:51;;;;;;;2.40;2.20;;;;;;;22.18;53.87;101200.53;5050587;28;20201;-78
2022/08/23 07:49:18;;;;;;;2.40;2.20;;;;;;;22.23;54.15;101226.00;5047110;28;20217;-79
2022/08/23 07:51:49;;;;;;;2.43;2.20;;;;;;;22.30;53.22;101248.66;5054723;28;20235;-79
2022/08/23 07:54:17;;;;;;;2.70;2.07;;;;;;;22.37;52.51;101274.84;5040908;28;20249;-79
2022/08/23 07:56:46;;;;;;;2.50;1.97;;;;;;;22.41;53.67;101257.78;5046563;28;20292;-78
2022/08/23 07:59:13;;;;;;;3.13;2.13;;;;;;;22.45;52.95;101260.28;5052423;28;20251;-79
2022/08/23 08:01:42;;;;;;;2.23;2.03;;;;;;;22.52;52.26;101288.28;5041983;28;20293;-80
2022/08/23 08:04:08;;;;;;;2.53;2.30;;;;;;;22.57;51.83;101304.81;5049072;28;20217;-80
2022/08/23 08:06:39;;;;;;;2.43;1.97;;;;;;;22.58;52.74;101293.25;5040042;28;20206;-80
2022/08/23 08:09:07;;;;;;;2.30;2.10;;;;;;;22.62;51.60;101299.28;5046282;28;20202;-79
2022/08/23 08:11:34;;;;;;;2.20;2.07;;;;;;;22.68;50.80;101341.50;5044465;28;20209;-79
2022/08/23 08:14:05;;;;;;;1.93;1.80;;;;;;;22.73;51.34;101355.41;5049789;28;20226;-77
2022/08/23 08:16:34;;;;;;;3.33;2.20;;;;;;;22.77;51.79;101344.53;5046943;28;20717;-79
2022/08/23 08:19:03;;;;;;;2.83;1.90;;;;;;;22.86;51.97;101326.31;5047673;28;20253;-80
2022/08/23 08:21:30;;;;;;;2.70;2.00;;;;;;;22.92;49.84;101358.75;5053936;28;20725;-80
2022/08/23 08:23:58;;;;;;;2.53;2.20;;;;;;;22.97;49.39;101398.44;5042445;28;20252;-81
2022/08/23 08:26:26;;;;;;;3.87;2.33;;;;;;;22.94;51.68;101358.69;5037977;28;20212;-79
2022/08/23 08:28:54;;;;;;;2.93;2.27;;;;;;;22.97;50.68;101315.88;5042398;28;20229;-79
2022/08/23 08:31:22;;;;;;;2.47;2.10;;;;;;;23.03;49.17;101362.66;5047881;28;20201;-78
2022/08/23 08:33:49;;;;;;;2.83;1.73;;;;;;;23.06;48.28;101410.44;5048502;28;20224;-79
2022/08/23 08:36:30;;;;;;;2.57;2.37;;;;;;;23.11;48.42;101427.00;5055987;28;20255;-80
2022/08/23 08:38:57;;;;;;;2.37;1.80;;;;;;;23.14;48.77;101432.16;5058746;28;20255;-78
2022/08/23 08:41:37;;;;;;;3.97;2.00;;;;;;;23.17;49.06;101413.31;5051024;28;20198;-78
2022/08/23 08:44:10;;;;;;;3.03;2.03;;;;;;;23.22;48.08;101440.59;5053646;28;20221;-80
2022/08/23 08:46:44;;;;;;;3.53;1.70;;;;;;;23.22;48.41;101429.94;5044067;28;20266;-80
2022/08/23 08:49:16;;;;;;;2.00;1.90;;;;;;;23.28;47.53;101439.38;5047481;28;20234;-79
2022/08/23 08:51:50;;;;;;;4.63;2.10;;;;;;;23.30;47.61;101459.66;5059610;28;20210;-79
2022/08/23 08:54:22;;;;;;;8.03;2.50;;;;;;;23.31;48.37;101448.06;5060104;28;20247;-78
2022/08/23 08:56:52;;;;;;;2.60;2.00;;;;;;;23.38;47.37;101462.75;5058410;28;20297;-78
2022/08/23 08:59:21;;;;;;;2.20;1.80;;;;;;;23.40;48.25;101436.88;5058660;28;20208;-80
2022/08/23 09:01:50;;;;;;;2.57;1.80;;;;;;;23.47;46.79;101466.72;5059491;28;20291;-80
2022/08/23 09:04:16;;;;;;;3.20;2.10;;;;;;;23.52;46.80;101475.28;5059332;28;20227;-80
2022/08/23 09:06:50;;;;;;;1.60;1.50;;;;;;;23.57;46.13;101499.88;5059083;28;20211;-79
2022/08/23 09:09:34;;;;;;;1.93;1.77;;;;;;;23.57;47.58;101459.91;5059022;28;20231;-80
2022/08/23 09:12:07;;;;;;;2.43;2.27;;;;;;;23.58;46.59;101474.94;5059004;28;20193;-80
2022/08/23 09:14:49;;;;;;;3.10;1.83;;;;;;;23.65;45.95;101491.47;5059107;28;20690;-80
2022/08/23 09:17:25;;;;;;;2.20;2.00;;;;;;;23.69;46.84;101482.34;5059326;28;20198;-80
2022/08/23 09:19:56;;;;;;;1.83;1.70;;;;;;;23.75;45.84;101481.97;5059482;28;20201;-80
2022/08/23 09:22:33;;;;;;;2.30;2.20;;;;;;;23.82;46.04;101482.50;5059509;28;20662;-79
2022/08/23 09:25:00;;;;;;;2.73;1.97;;;;;;;23.85;47.61;101449.50;5058875;28;20209;-80
2022/08/23 09:27:26;;;;;;;2.33;1.83;;;;;;;23.89;46.23;101478.53;5060026;28;20213;-79
2022/08/23 09:29:56;;;;;;;2.43;2.00;;;;;;;23.95;45.94;101470.19;5059962;28;20199;-79
2022/08/23 09:32:30;;;;;;;3.23;2.20;;;;;;;24.00;45.74;101477.91;5059501;28;20205;-80
2022/08/23 09:35:07;;;;;;;2.57;2.00;;;;;;;24.04;45.92;101491.91;5059106;28;20215;-79
2022/08/23 09:37:54;;;;;;;2.13;1.90;;;;;;;24.08;46.38;101498.78;5059674;28;20249;-79
2022/08/23 09:40:29;;;;;;;3.20;2.17;;;;;;;24.09;47.89;101436.50;5060638;28;20237;-79
2022/08/23 09:43:11;;;;;;;2.50;1.80;;;;;;;24.17;47.40;101440.41;5057453;28;20221;-78
2022/08/23 09:45:41;;;;;;;2.40;2.00;;;;;;;24.23;46.36;101436.53;5057816;28;20245;-79
2022/08/23 09:48:14;;;;;;;2.40;1.80;;;;;;;24.29;43.97;101486.84;5057854;28;20259;-80
2022/08/23 09:50:48;;;;;;;4.33;2.00;;;;;;;24.33;44.21;101536.41;5057581;28;20228;-80
2022/08/23 09:53:22;;;;;;;1.87;1.77;;;;;;;24.41;44.03;101538.63;5057760;28;20266;-80
2022/08/23 09:55:52;;;;;;;2.60;1.80;;;;;;;24.45;44.28;101539.31;5057227;28;20200;-80
2022/08/23 09:58:30;;;;;;;1.80;1.57;;;;;;;24.49;44.77;101533.69;5057545;28;20205;-78
2022/08/23 10:01:10;;;;;;;3.30;1.80;;;;;;;24.53;43.52;101529.91;5057582;28;20237;-80
2022/08/23 10:03:38;;;;;;;3.43;2.10;;;;;;;24.57;44.32;101531.44;5057404;28;20260;-80
2022/08/23 10:06:07;;;;;;;1.90;1.80;;;;;;;24.65;43.30;101536.31;5057476;28;20299;-79
2022/08/23 10:08:36;;;;;;;2.63;1.50;;;;;;;24.72;43.15;101556.38;5057319;28;20224;-80
2022/08/23 10:11:11;;;;;;;2.20;1.40;;;;;;;24.77;44.26;101559.59;5057289;28;20212;-80
2022/08/23 10:13:39;;;;;;;1.87;1.20;;;;;;;24.85;43.28;101558.28;5058653;28;20236;-80
2022/08/23 10:16:15;;;;;;;1.47;1.03;;;;;;;24.93;43.33;101547.97;5053712;28;20227;-79
2022/08/23 10:18:56;;;;;;;1.33;1.10;;;;;;;24.95;43.11;101572.78;5053893;28;20196;-80
2022/08/23 10:21:32;;;;;;;1.30;1.20;;;;;;;25.04;42.54;101577.56;5055093;28;20194;-80
2022/08/23 10:24:15;;;;;;;1.23;1.13;;;;;;;25.17;42.22;101559.84;5052979;28;20216;-80
2022/08/23 10:27:03;;;;;;;1.70;1.00;;;;;;;25.23;42.81;101604.03;5049837;28;20227;-81
2022/08/23 10:29:37;;;;;;;1.53;0.97;;;;;;;25.29;40.56;101602.78;5048552;28;20214;-80
2022/08/23 10:32:17;;;;;;;2.93;0.90;;;;;;;25.35;39.65;101671.91;5051003;28;20230;-79
2022/08/23 10:34:57;;;;;;;1.43;0.80;;;;;;;25.39;39.53;101693.97;5049416;28;20236;-78
2022/08/23 10:37:39;;;;;;;1.40;0.80;;;;;;;25.43;39.96;101685.69;5043643;28;20205;-80
2022/08/23 10:40:12;;;;;;;2.73;1.13;;;;;;;25.46;39.18;101717.56;5048725;28;20667;-79
2022/08/23 10:42:50;;;;;;;1.17;0.80;;;;;;;25.51;39.46;101695.88;5050069;28;20205;-79
2022/08/23 10:45:24;;;;;;;2.87;1.13;;;;;;;25.62;39.28;101716.63;5052115;28;20206;-80
2022/08/23 10:48:11;;;;;;;0.72;0.68;;;;;;;25.70;38.45;101692.94;4544703;28;10002810;-80
2022/08/23 10:50:44;;;;;;;0.90;0.77;;;;;;;25.75;38.54;101722.94;5054929;28;20221;-79
2022/08/23 10:53:15;;;;;;;0.83;0.77;;;;;;;25.83;38.69;101723.31;5050514;28;20213;-80
2022/08/23 10:56:01;;;;;;;1.10;1.00;;;;;;;25.90;39.06;101700.56;5046709;28;20202;-80
2022/08/23 10:58:33;;;;;;;0.70;0.70;;;;;;;25.99;39.53;101690.28;5041680;28;20204;-79
2022/08/23 11:01:02;;;;;;;0.67;0.67;;;;;;;26.09;37.64;101684.22;5043610;28;20197;-80
2022/08/23 11:03:31;;;;;;;0.73;0.73;;;;;;;26.15;38.18;101717.75;5049905;28;20222;-79
2022/08/23 11:06:38;;;;;;;1.77;0.70;;;;;;;26.31;38.11;101682.81;5048560;28;20676;-80
2022/08/23 11:09:09;;;;;;;0.77;0.77;;;;;;;26.42;36.65;101739.22;5048215;28;20244;-79
2022/08/23 11:11:43;;;;;;;2.40;0.90;;;;;;;26.52;38.13;101761.75;5041721;28;20209;-80
2022/08/23 11:14:12;;;;;;;1.00;0.80;;;;;;;26.63;35.98;101768.25;5044796;28;20248;-79
2022/08/23 11:16:45;;;;;;;1.67;0.83;;;;;;;26.71;35.71;101804.28;5045239;28;20205;-79
2022/08/23 11:19:14;;;;;;;0.70;0.70;;;;;;;26.81;36.97;101799.19;5049035;28;20205;-78
2022/08/23 11:21:46;;;;;;;0.90;0.90;;;;;;;26.93;36.95;101773.38;5053441;28;20247;-79
2022/08/23 11:24:47;;;;;;;3.50;0.90;;;;;;;27.10;35.51;101799.06;5039748;28;20214;-80
2022/08/23 11:27:29;;;;;;;0.80;0.80;;;;;;;27.21;35.40;101823.31;5043286;28;20235;-80
2022/08/23 11:29:56;;;;;;;0.80;0.80;;;;;;;27.38;35.08;101830.25;5033908;28;20709;-80
2022/08/23 11:32:38;;;;;;;1.00;0.80;;;;;;;27.54;34.82;101820.19;5033781;28;20209;-80
2022/08/23 11:35:23;;;;;;;1.33;0.90;;;;;;;28.03;34.30;101807.91;5033699;28;20210;-79
2022/08/23 11:37:55;;;;;;;2.70;1.10;;;;;;;29.38;33.68;101856.28;5033745;28;20220;-80
2022/08/23 11:40:55;;;;;;;2.57;1.10;;;;;;;31.17;31.54;101910.38;5045242;28;20200;-80
2022/08/23 11:43:27;;;;;;;2.50;1.00;;;;;;;33.08;27.46;102077.81;5054521;28;20237;-81
2022/08/23 11:45:54;;;;;;;1.10;1.00;;;;;;;34.27;26.29;102154.66;5055506;28;20206;-81